Time;durP1;ratioP1;P1;durP2;ratioP2;P2;SDS_P1;SDS_P2;PMS_P1;PMS_P2;Temp;Humidity;BMP_temperature;BMP_pressure;BME280_temperature;BME280_humidity;BME280_pressure;Samples;Min_cycle;Max_cycle;Signal;HPM_P1;HPM_P2
2021/08/15 00:02:04;;;;;;;15.40;8.70;;;;;;;20.37;55.53;100892.89;117585;1182;23782;-84
2021/08/15 00:04:32;;;;;;;10.90;8.60;;;;;;;20.34;55.61;100895.16;117622;1185;23547;-84
2021/08/15 00:07:19;;;;;;;11.60;8.10;;;;;;;20.32;55.59;100893.11;117593;1185;23566;-84
2021/08/15 00:09:48;;;;;;;11.90;7.80;;;;;;;20.32;55.58;100894.19;117625;1186;23528;-84
2021/08/15 00:12:17;;;;;;;13.30;9.10;;;;;;;20.35;55.57;100892.30;117566;1185;23547;-84
2021/08/15 00:14:47;;;;;;;12.50;8.40;;;;;;;20.30;55.70;100895.20;117595;1185;23536;-84
2021/08/15 00:17:16;;;;;;;13.30;9.00;;;;;;;20.26;55.83;100890.91;117643;1182;23538;-84
2021/08/15 00:20:05;;;;;;;12.20;8.20;;;;;;;20.36;55.61;100894.75;117623;1186;23545;-84
2021/08/15 00:22:36;;;;;;;12.20;8.90;;;;;;;20.31;55.76;100893.19;117491;1186;21852;-84
2021/08/15 00:25:06;;;;;;;12.50;8.00;;;;;;;20.25;55.94;100895.43;117645;1183;23971;-84
2021/08/15 00:27:34;;;;;;;13.10;8.90;;;;;;;20.27;55.92;100891.61;117581;1182;21967;-84
2021/08/15 00:30:03;;;;;;;14.10;8.90;;;;;;;20.26;55.98;100889.14;117434;1182;23547;-84
2021/08/15 00:32:33;;;;;;;16.10;9.20;;;;;;;20.20;56.12;100887.95;117645;1185;23540;-84
2021/08/15 00:35:02;;;;;;;13.50;9.30;;;;;;;20.12;56.38;100890.12;117648;1182;21855;-84
2021/08/15 00:37:31;;;;;;;13.00;9.20;;;;;;;20.10;56.46;100887.70;117561;1185;23583;-84
2021/08/15 00:40:00;;;;;;;11.30;8.70;;;;;;;20.08;56.50;100888.85;117579;1179;23531;-84
2021/08/15 00:42:29;;;;;;;10.90;8.30;;;;;;;20.04;56.55;100890.44;117482;1182;22647;-84
2021/08/15 00:45:16;;;;;;;13.10;8.50;;;;;;;20.03;56.60;100888.02;117623;1185;23538;-84
2021/08/15 00:48:10;;;;;;;14.10;9.50;;;;;;;20.01;56.72;100887.02;117574;1179;23643;-84
2021/08/15 00:50:47;;;;;;;12.30;8.90;;;;;;;20.00;56.73;100884.20;117305;1186;23600;-84
2021/08/15 00:53:15;;;;;;;13.30;10.10;;;;;;;19.99;56.84;100882.48;117620;1182;22103;-84
2021/08/15 00:55:52;;;;;;;13.60;9.10;;;;;;;19.98;56.91;100878.94;117525;1185;21876;-84
2021/08/15 00:58:20;;;;;;;11.10;8.80;;;;;;;19.98;56.90;100879.30;117492;1185;23462;-84
2021/08/15 01:00:48;;;;;;;17.10;10.40;;;;;;;19.97;56.98;100879.89;117445;1186;22196;-84
2021/08/15 01:03:18;;;;;;;16.30;9.70;;;;;;;19.94;56.96;100878.40;117516;1185;21854;-84
2021/08/15 01:05:46;;;;;;;14.70;10.40;;;;;;;19.94;56.96;100879.69;117530;1186;21868;-84
2021/08/15 01:08:14;;;;;;;13.80;9.30;;;;;;;19.92;57.12;100880.98;117452;1185;22960;-85
2021/08/15 01:11:03;;;;;;;14.80;9.90;;;;;;;19.90;57.11;100874.33;117304;1187;22891;-84
2021/08/15 01:13:51;;;;;;;13.60;9.50;;;;;;;19.87;57.17;100869.96;117502;1186;21854;-84
2021/08/15 01:16:20;;;;;;;14.60;10.10;;;;;;;19.85;57.18;100868.61;117591;1182;23560;-84
2021/08/15 01:18:48;;;;;;;15.40;9.20;;;;;;;19.85;57.22;100865.39;117675;1185;23540;-84
2021/08/15 01:21:16;;;;;;;13.30;9.30;;;;;;;19.85;57.22;100867.00;117581;1182;24164;-85
2021/08/15 01:23:46;;;;;;;11.40;8.60;;;;;;;19.83;57.35;100865.50;117590;1186;23544;-84
2021/08/15 01:26:17;;;;;;;15.00;10.00;;;;;;;19.72;57.58;100858.84;117442;1186;21862;-84
2021/08/15 01:28:46;;;;;;;13.30;9.70;;;;;;;19.76;57.65;100859.90;117419;1179;21877;-84
2021/08/15 01:31:14;;;;;;;16.90;9.80;;;;;;;19.78;57.44;100858.39;117577;1185;21867;-84
2021/08/15 01:33:43;;;;;;;13.40;10.10;;;;;;;19.78;57.42;100860.39;117601;1180;22904;-84
2021/08/15 01:36:13;;;;;;;15.40;9.80;;;;;;;19.77;57.42;100856.86;117625;1182;23551;-84
2021/08/15 01:38:42;;;;;;;14.60;9.70;;;;;;;19.78;57.42;100855.91;117642;1185;23595;-84
2021/08/15 01:41:11;;;;;;;15.30;10.90;;;;;;;19.80;57.33;100857.10;117465;1184;22911;-84
2021/08/15 01:43:49;;;;;;;13.10;9.90;;;;;;;19.78;57.38;100855.21;117541;1182;23573;-84
2021/08/15 01:46:18;;;;;;;15.40;9.50;;;;;;;19.77;57.33;100854.36;117515;1182;21863;-84
2021/08/15 01:48:46;;;;;;;12.40;9.50;;;;;;;19.75;57.29;100852.81;117493;1185;22258;-84
2021/08/15 01:51:15;;;;;;;13.40;9.60;;;;;;;19.73;57.30;100850.80;117589;1185;21851;-84
2021/08/15 01:53:44;;;;;;;15.60;10.70;;;;;;;19.72;57.33;100853.30;117616;1176;21855;-84
2021/08/15 01:56:12;;;;;;;13.80;9.80;;;;;;;19.71;57.34;100851.59;117560;1185;22360;-84
2021/08/15 01:58:40;;;;;;;15.20;10.10;;;;;;;19.80;57.01;100854.95;117552;1185;23540;-84
2021/08/15 02:01:08;;;;;;;11.40;9.20;;;;;;;19.75;56.66;100852.66;117439;1179;21851;-84
2021/08/15 02:03:37;;;;;;;13.30;10.10;;;;;;;19.59;56.67;100849.96;117577;1185;21852;-84
2021/08/15 02:06:06;;;;;;;14.60;9.10;;;;;;;19.54;56.79;100854.63;117614;1185;21841;-84
2021/08/15 02:08:34;;;;;;;17.90;9.90;;;;;;;19.55;56.68;100853.31;117638;1182;23293;-84
2021/08/15 02:11:02;;;;;;;17.40;9.90;;;;;;;19.54;56.57;100854.98;117597;1185;21919;-83
2021/08/15 02:13:30;;;;;;;18.60;10.10;;;;;;;19.45;56.79;100855.86;117525;1182;21869;-84
2021/08/15 02:16:18;;;;;;;13.00;9.10;;;;;;;19.41;56.94;100856.07;117511;1185;23432;-84
2021/08/15 02:18:46;;;;;;;14.40;9.70;;;;;;;19.38;57.04;100859.02;117577;1182;22371;-84
2021/08/15 02:21:34;;;;;;;14.60;9.30;;;;;;;19.35;57.09;100859.85;117485;1185;22736;-84
2021/08/15 02:24:02;;;;;;;15.90;9.80;;;;;;;19.32;57.03;100853.77;117641;1186;21869;-84
2021/08/15 02:26:31;;;;;;;15.60;10.30;;;;;;;19.28;57.21;100853.18;117644;1182;22337;-84
2021/08/15 02:29:00;;;;;;;15.00;9.60;;;;;;;19.24;57.28;100854.59;117629;1182;23571;-85
2021/08/15 02:31:28;;;;;;;18.90;9.50;;;;;;;19.16;57.21;100851.92;117415;1186;22648;-84
2021/08/15 02:34:01;;;;;;;16.30;10.40;;;;;;;19.06;57.33;100852.49;117538;1179;23563;-84
2021/08/15 02:36:29;;;;;;;14.30;9.50;;;;;;;18.99;57.36;100854.36;117512;1182;23554;-84
2021/08/15 02:38:57;;;;;;;16.60;10.10;;;;;;;18.96;57.37;100852.17;117550;1182;22609;-84
2021/08/15 02:41:26;;;;;;;13.60;9.90;;;;;;;18.94;57.51;100850.64;117596;1185;23533;-84
2021/08/15 02:43:54;;;;;;;14.00;10.50;;;;;;;18.89;57.65;100852.41;117595;1185;21864;-85
2021/08/15 02:46:23;;;;;;;14.80;10.40;;;;;;;18.84;57.76;100854.91;117604;1182;23634;-84
2021/08/15 02:48:53;;;;;;;13.40;10.10;;;;;;;18.82;58.00;100852.69;117533;1182;21848;-84
2021/08/15 02:51:21;;;;;;;19.10;10.90;;;;;;;18.81;58.06;100855.58;117395;1186;21858;-84
2021/08/15 02:53:50;;;;;;;17.30;10.90;;;;;;;18.79;58.22;100854.73;117503;1183;22977;-84
2021/08/15 02:56:18;;;;;;;17.20;10.60;;;;;;;18.81;58.25;100852.73;117473;1183;21858;-84
2021/08/15 02:58:46;;;;;;;14.80;10.30;;;;;;;18.82;58.35;100857.48;117532;1183;21878;-85
2021/08/15 03:01:15;;;;;;;18.60;11.90;;;;;;;18.82;58.47;100860.52;117615;1186;23614;-85
2021/08/15 03:03:44;;;;;;;16.50;10.80;;;;;;;18.83;58.48;100859.75;117562;1183;22909;-84
2021/08/15 03:06:14;;;;;;;20.20;10.50;;;;;;;18.84;58.59;100862.39;117596;1183;23738;-85
2021/08/15 03:09:00;;;;;;;15.40;10.60;;;;;;;18.86;58.55;100859.11;117523;1185;23813;-85
2021/08/15 03:11:30;;;;;;;14.30;11.00;;;;;;;18.89;58.59;100859.89;117507;1179;22326;-85
2021/08/15 03:13:58;;;;;;;17.80;11.50;;;;;;;18.91;58.69;100858.94;117553;1182;23210;-85
2021/08/15 03:16:26;;;;;;;14.30;11.00;;;;;;;18.91;58.77;100860.35;117535;1186;23538;-85
2021/08/15 03:19:15;;;;;;;17.60;11.90;;;;;;;18.88;58.95;100861.17;117492;1185;23474;-85
2021/08/15 03:21:48;;;;;;;16.20;11.90;;;;;;;18.89;59.20;100861.67;117567;1186;23574;-85
2021/08/15 03:24:23;;;;;;;15.90;12.50;;;;;;;18.94;59.18;100864.52;117346;1186;23561;-84
2021/08/15 03:27:11;;;;;;;17.90;11.70;;;;;;;18.94;59.43;100866.61;117532;1186;21987;-84
2021/08/15 03:29:40;;;;;;;17.90;11.80;;;;;;;18.99;59.36;100870.02;117522;1185;23266;-85
2021/08/15 03:32:08;;;;;;;22.90;12.70;;;;;;;19.06;59.22;100873.84;117598;1185;22955;-84
2021/08/15 03:34:36;;;;;;;14.80;11.40;;;;;;;19.10;59.28;100871.88;117624;1185;21855;-85
2021/08/15 03:37:04;;;;;;;18.00;11.80;;;;;;;19.16;59.13;100868.99;117561;1183;23686;-84
2021/08/15 03:39:33;;;;;;;18.90;11.20;;;;;;;19.21;59.05;100868.09;117501;1186;23540;-84
2021/08/15 03:42:01;;;;;;;19.10;11.60;;;;;;;19.22;58.96;100866.59;117515;1182;21862;-85
2021/08/15 03:44:29;;;;;;;24.20;11.80;;;;;;;19.18;59.20;100868.20;117586;1186;22959;-84
2021/08/15 03:46:58;;;;;;;21.90;11.60;;;;;;;19.20;59.40;100866.14;117590;1185;23537;-84
2021/08/15 03:49:27;;;;;;;25.20;11.90;;;;;;;19.28;59.55;100866.52;117618;1182;21877;-84
2021/08/15 03:51:56;;;;;;;20.50;11.70;;;;;;;19.38;59.55;100870.05;117634;1185;21872;-84
2021/08/15 03:54:25;;;;;;;18.30;11.20;;;;;;;19.46;59.39;100873.63;117632;1186;23560;-89
2021/08/15 03:56:53;;;;;;;22.60;12.90;;;;;;;19.61;58.93;100873.17;117345;1185;21867;-85
2021/08/15 03:59:22;;;;;;;25.20;12.40;;;;;;;19.73;59.18;100872.69;117534;1186;23559;-84
2021/08/15 04:01:51;;;;;;;20.50;12.70;;;;;;;19.81;58.96;100875.92;117476;1182;23647;-85
2021/08/15 04:04:20;;;;;;;22.30;12.60;;;;;;;19.89;58.94;100876.47;117692;1185;21851;-84
2021/08/15 04:06:48;;;;;;;23.70;12.40;;;;;;;19.95;58.74;100876.58;117408;1188;21844;-85
2021/08/15 04:09:18;;;;;;;22.70;12.10;;;;;;;20.00;58.63;100874.57;117611;1185;23631;-85
2021/08/15 04:11:49;;;;;;;19.90;13.20;;;;;;;20.05;58.73;100877.93;117638;1184;21910;-84
2021/08/15 04:14:18;;;;;;;21.40;13.10;;;;;;;20.13;58.80;100878.66;117563;1183;21847;-84
2021/08/15 04:16:48;;;;;;;20.50;12.90;;;;;;;20.21;58.82;100876.49;117540;1184;23553;-85
2021/08/15 04:19:17;;;;;;;17.10;12.80;;;;;;;20.31;59.13;100876.94;117448;1186;23563;-85
2021/08/15 04:21:45;;;;;;;16.10;12.00;;;;;;;20.39;59.32;100873.95;117414;1179;23459;-85
2021/08/15 04:24:13;;;;;;;21.50;12.60;;;;;;;20.46;59.21;100877.20;117511;1186;21858;-85
2021/08/15 04:26:46;;;;;;;16.50;12.50;;;;;;;20.55;59.10;100874.96;117607;1185;23618;-85
2021/08/15 04:29:17;;;;;;;20.90;12.70;;;;;;;20.70;59.09;100875.38;117572;1182;23646;-85
2021/08/15 04:31:45;;;;;;;22.30;14.10;;;;;;;20.78;59.16;100874.85;117569;1185;22375;-84
2021/08/15 04:34:13;;;;;;;19.50;13.30;;;;;;;20.90;59.24;100875.00;117452;1186;21858;-84
2021/08/15 04:36:41;;;;;;;21.70;13.00;;;;;;;21.06;59.02;100872.27;117610;1185;21857;-85
2021/08/15 04:39:09;;;;;;;21.20;13.90;;;;;;;21.21;59.19;100874.05;117413;1182;21867;-84
2021/08/15 04:41:37;;;;;;;20.20;13.20;;;;;;;21.38;59.25;100872.88;117460;1185;22459;-84
2021/08/15 04:44:06;;;;;;;18.60;13.70;;;;;;;21.52;59.20;100869.84;117620;1182;22807;-84
2021/08/15 04:46:34;;;;;;;21.90;14.00;;;;;;;21.68;59.19;100867.84;117622;1184;22161;-85
2021/08/15 04:49:03;;;;;;;18.50;13.90;;;;;;;21.84;59.00;100869.30;117465;1186;23592;-85
2021/08/15 04:51:32;;;;;;;20.80;14.30;;;;;;;22.01;59.20;100868.80;117556;1182;22913;-85
2021/08/15 04:54:00;;;;;;;20.60;14.10;;;;;;;22.22;59.39;100867.88;117768;1182;22276;-85
2021/08/15 04:56:29;;;;;;;25.60;14.60;;;;;;;22.44;59.42;100874.41;117681;1185;21877;-85
2021/08/15 04:58:57;;;;;;;18.30;13.70;;;;;;;22.68;58.88;100874.21;117631;1185;21959;-86
2021/08/15 05:01:26;;;;;;;23.30;14.60;;;;;;;22.94;58.45;100870.98;117650;1185;23560;-84
2021/08/15 05:03:56;;;;;;;20.70;14.50;;;;;;;23.19;58.07;100870.11;117636;1182;23545;-85
2021/08/15 05:06:24;;;;;;;19.90;14.00;;;;;;;23.41;57.75;100870.27;117564;1182;22618;-84
2021/08/15 05:08:53;;;;;;;20.30;13.90;;;;;;;23.63;57.36;100869.34;117545;1185;23537;-85
2021/08/15 05:11:21;;;;;;;22.10;12.90;;;;;;;23.88;57.11;100866.11;117388;1186;21857;-84
2021/08/15 05:13:50;;;;;;;18.20;12.70;;;;;;;24.08;56.76;100868.83;117543;1186;22903;-85
2021/08/15 05:16:18;;;;;;;18.40;12.40;;;;;;;24.30;56.21;100867.65;117649;1183;22093;-84
2021/08/15 05:18:47;;;;;;;19.00;13.40;;;;;;;24.56;55.77;100866.06;117626;1185;21862;-84
2021/08/15 05:21:15;;;;;;;19.60;13.00;;;;;;;24.77;55.33;100864.05;117506;1184;23621;-85
2021/08/15 05:23:44;;;;;;;19.10;12.60;;;;;;;24.98;54.91;100863.24;117611;1179;21927;-85
2021/08/15 05:26:12;;;;;;;16.70;11.70;;;;;;;25.15;54.23;100858.36;117404;1182;22929;-85
2021/08/15 05:28:41;;;;;;;14.10;10.70;;;;;;;25.29;53.46;100859.60;117588;1182;23541;-86
2021/08/15 05:31:09;;;;;;;15.30;10.20;;;;;;;25.38;53.06;100859.87;117553;1179;23448;-85
2021/08/15 05:33:37;;;;;;;16.40;10.40;;;;;;;25.53;52.75;100859.09;117594;1185;21880;-85
2021/08/15 05:36:05;;;;;;;16.30;9.70;;;;;;;25.79;52.50;100853.02;117608;1181;21919;-84
2021/08/15 05:38:33;;;;;;;15.70;10.70;;;;;;;26.04;52.39;100854.54;117577;1185;21928;-85
2021/08/15 05:41:02;;;;;;;15.70;10.60;;;;;;;26.30;51.91;100848.95;117606;1185;24000;-85
2021/08/15 05:43:30;;;;;;;12.60;9.00;;;;;;;26.57;51.13;100855.34;117506;1185;23563;-86
2021/08/15 05:45:58;;;;;;;13.00;9.40;;;;;;;26.89;50.33;100855.91;117634;1185;21961;-84
2021/08/15 05:48:27;;;;;;;11.70;9.10;;;;;;;27.18;49.68;100852.54;117435;1182;22923;-84
2021/08/15 05:50:55;;;;;;;12.80;8.40;;;;;;;27.46;48.95;100856.70;117403;1184;23554;-85
2021/08/15 05:53:23;;;;;;;11.50;8.90;;;;;;;27.76;48.50;100854.50;117464;1184;22821;-85
2021/08/15 05:55:51;;;;;;;12.50;8.00;;;;;;;28.08;47.77;100855.95;117463;1186;23584;-85
2021/08/15 05:58:20;;;;;;;13.00;8.60;;;;;;;28.41;47.15;100852.48;117588;1182;21882;-85
2021/08/15 06:00:49;;;;;;;11.30;8.50;;;;;;;28.71;46.59;100858.39;117483;1186;22223;-84
2021/08/15 06:03:17;;;;;;;10.00;7.80;;;;;;;28.98;45.80;100854.53;117347;1187;23635;-85
2021/08/15 06:05:46;;;;;;;11.20;7.70;;;;;;;29.27;44.87;100849.15;117430;1186;22655;-86
2021/08/15 06:08:15;;;;;;;10.60;7.40;;;;;;;29.47;44.65;100849.23;117292;1182;23564;-86
2021/08/15 06:10:44;;;;;;;10.30;7.50;;;;;;;29.61;44.20;100843.55;117438;1179;23410;-85
2021/08/15 06:13:14;;;;;;;9.70;7.60;;;;;;;29.77;44.07;100840.60;117455;1186;21858;-86
2021/08/15 06:15:42;;;;;;;11.20;7.10;;;;;;;29.88;43.50;100835.84;117435;1182;21860;-86
2021/08/15 06:18:10;;;;;;;9.30;6.50;;;;;;;30.05;42.85;100838.19;117455;1183;23583;-86
2021/08/15 06:20:48;;;;;;;9.30;5.80;;;;;;;30.15;41.75;100839.81;117573;1182;23573;-87
2021/08/15 06:23:17;;;;;;;9.10;6.30;;;;;;;30.26;41.22;100839.58;117607;1182;23541;-86
2021/08/15 06:25:45;;;;;;;8.00;5.60;;;;;;;30.53;40.48;100839.77;117411;1184;23637;-86
2021/08/15 06:28:14;;;;;;;11.80;5.40;;;;;;;30.79;40.03;100836.00;117484;1179;22145;-87
2021/08/15 06:30:42;;;;;;;6.50;5.10;;;;;;;31.00;39.55;100835.73;117493;1186;23637;-87
2021/08/15 06:33:11;;;;;;;8.60;4.80;;;;;;;31.28;38.96;100834.99;117296;1187;21860;-87
2021/08/15 06:35:39;;;;;;;8.90;4.80;;;;;;;31.58;38.25;100830.23;117413;1182;23544;-87
2021/08/15 06:38:07;;;;;;;6.80;4.80;;;;;;;31.80;37.93;100829.73;117265;1186;21870;-85
2021/08/15 06:40:36;;;;;;;7.10;3.90;;;;;;;32.01;37.03;100830.46;117413;1182;21863;-85
2021/08/15 06:43:08;;;;;;;6.40;4.70;;;;;;;32.30;36.68;100829.77;117406;1187;21865;-86
2021/08/15 06:45:37;;;;;;;8.60;5.00;;;;;;;32.52;36.09;100828.17;117340;1186;23563;-85
2021/08/15 06:48:05;;;;;;;10.30;5.40;;;;;;;32.58;35.77;100828.41;117463;1185;21882;-86
2021/08/15 06:50:34;;;;;;;7.60;5.00;;;;;;;32.69;35.70;100829.08;117662;1182;22953;-84
2021/08/15 06:53:03;;;;;;;6.80;4.10;;;;;;;32.71;34.76;100831.41;117420;1187;23554;-86
2021/08/15 06:55:32;;;;;;;7.30;4.70;;;;;;;32.78;35.06;100829.98;117567;1185;21877;-86
2021/08/15 06:58:00;;;;;;;9.40;4.50;;;;;;;32.96;34.60;100829.49;117568;1179;21883;-86
2021/08/15 07:00:28;;;;;;;7.80;5.20;;;;;;;33.12;34.56;100829.14;117644;1179;21850;-85
2021/08/15 07:02:56;;;;;;;10.60;5.60;;;;;;;33.31;34.17;100826.45;117551;1183;22058;-86
2021/08/15 07:05:26;;;;;;;8.10;5.20;;;;;;;33.53;33.92;100825.39;117556;1185;21898;-85
2021/08/15 07:07:55;;;;;;;8.70;5.20;;;;;;;33.77;33.61;100821.40;117588;1185;21853;-85
2021/08/15 07:10:23;;;;;;;7.80;4.90;;;;;;;33.98;33.39;100820.73;117487;1182;21891;-86
2021/08/15 07:12:55;;;;;;;6.20;4.30;;;;;;;34.19;32.90;100818.88;117640;1185;21860;-86
2021/08/15 07:15:28;;;;;;;7.80;5.70;;;;;;;34.44;32.60;100817.67;117475;1182;22902;-86
2021/08/15 07:17:57;;;;;;;6.90;4.70;;;;;;;34.67;32.22;100822.20;117699;1180;22512;-89
2021/08/15 07:20:26;;;;;;;13.90;6.00;;;;;;;34.91;31.87;100822.50;117494;1185;21862;-84
2021/08/15 07:22:54;;;;;;;13.00;5.70;;;;;;;35.13;31.30;100816.87;117635;1185;21853;-92
2021/08/15 07:25:25;;;;;;;12.20;5.20;;;;;;;35.30;31.18;100813.08;117459;1182;22912;-93
2021/08/15 07:27:54;;;;;;;10.00;4.80;;;;;;;35.39;30.85;100813.45;117391;1185;22609;-92
2021/08/15 07:30:22;;;;;;;10.20;5.60;;;;;;;35.52;30.69;100817.70;117605;1182;23660;-91
2021/08/15 07:32:58;;;;;;;11.30;5.40;;;;;;;35.74;30.27;100819.08;117865;1185;21868;-91
2021/08/15 07:35:30;;;;;;;8.80;4.90;;;;;;;35.96;29.55;100816.40;117660;1186;23685;-93
2021/08/15 07:37:58;;;;;;;8.00;4.80;;;;;;;36.21;29.36;100820.70;117722;1185;21848;-92
2021/08/15 07:40:31;;;;;;;7.40;5.10;;;;;;;36.35;28.88;100818.01;117547;1182;22893;-93
2021/08/15 07:42:59;;;;;;;9.00;4.80;;;;;;;36.28;28.82;100818.44;117558;1185;21854;-94
2021/08/15 07:45:43;;;;;;;7.20;4.80;;;;;;;36.17;28.76;100818.02;117621;1179;22273;-93
2021/08/15 07:48:11;;;;;;;8.60;4.90;;;;;;;36.21;28.56;100817.08;117568;1183;22175;-93
2021/08/15 07:50:40;;;;;;;8.10;4.50;;;;;;;36.41;28.26;100813.40;117531;1182;23573;-94
2021/08/15 07:53:21;;;;;;;8.20;4.20;;;;;;;36.63;27.68;100810.09;117575;1185;21854;-94
2021/08/15 07:55:50;;;;;;;6.70;4.50;;;;;;;36.84;27.63;100807.38;117643;1184;21869;-93
2021/08/15 07:58:19;;;;;;;6.00;4.70;;;;;;;37.10;27.39;100806.92;117756;1182;21856;-93
2021/08/15 08:00:48;;;;;;;7.70;4.30;;;;;;;37.38;27.00;100803.30;117306;1186;22682;-93
2021/08/15 08:03:17;;;;;;;5.90;4.20;;;;;;;37.61;26.69;100803.11;117606;1182;22957;-92
2021/08/15 08:05:46;;;;;;;6.60;5.10;;;;;;;37.60;26.04;100798.58;117445;1186;21880;-92
2021/08/15 08:08:14;;;;;;;7.00;4.60;;;;;;;37.59;25.67;100795.98;117516;1185;23627;-94
2021/08/15 08:10:44;;;;;;;8.40;4.70;;;;;;;37.47;25.39;100796.37;117353;1184;22094;-92
2021/08/15 08:13:12;;;;;;;6.10;4.20;;;;;;;37.42;25.75;100795.88;117484;1182;22837;-91
2021/08/15 08:15:56;;;;;;;9.40;4.20;;;;;;;37.66;25.35;100794.83;117661;1182;23580;-92
2021/08/15 08:18:25;;;;;;;9.90;4.70;;;;;;;37.76;25.36;100796.73;117529;1179;23697;-92
2021/08/15 08:20:53;;;;;;;11.20;4.40;;;;;;;37.88;25.18;100796.04;117460;1182;22622;-93
2021/08/15 08:23:22;;;;;;;8.50;5.20;;;;;;;38.10;25.03;100795.48;117585;1182;22919;-91
2021/08/15 08:25:50;;;;;;;10.40;5.30;;;;;;;38.48;24.92;100788.98;117574;1182;23560;-95
2021/08/15 08:28:19;;;;;;;9.80;4.80;;;;;;;38.61;24.29;100785.85;117564;1183;21857;-93
2021/08/15 08:30:47;;;;;;;7.20;4.30;;;;;;;38.59;23.64;100788.19;117452;1186;21872;-93
2021/08/15 08:33:16;;;;;;;7.10;4.40;;;;;;;38.49;23.64;100784.14;117404;1182;22632;-92
2021/08/15 08:35:44;;;;;;;5.80;4.00;;;;;;;38.35;23.56;100778.15;117339;1186;21958;-93
2021/08/15 08:38:12;;;;;;;6.30;3.90;;;;;;;38.13;23.11;100776.11;117612;1182;23544;-93
2021/08/15 08:40:41;;;;;;;12.20;4.50;;;;;;;37.94;23.75;100774.30;117396;1182;23560;-94
2021/08/15 08:43:09;;;;;;;12.30;4.50;;;;;;;37.79;23.62;100773.27;117498;1182;23996;-94
2021/08/15 08:45:41;;;;;;;5.50;4.00;;;;;;;37.70;24.04;100768.57;117553;1185;22907;-94
2021/08/15 08:48:17;;;;;;;6.20;4.40;;;;;;;37.68;23.55;100766.77;117613;1182;22647;-94
2021/08/15 08:50:49;;;;;;;5.90;3.80;;;;;;;37.83;24.51;100770.05;117456;1183;23537;-93
2021/08/15 08:53:18;;;;;;;6.30;3.90;;;;;;;38.17;24.11;100765.73;117604;1186;21865;-94
2021/08/15 08:55:47;;;;;;;7.10;4.30;;;;;;;38.37;23.61;100761.45;117437;1182;21911;-93
2021/08/15 08:58:16;;;;;;;6.50;4.10;;;;;;;38.53;23.71;100760.20;117498;1182;23570;-91
2021/08/15 09:00:45;;;;;;;7.00;3.80;;;;;;;38.74;23.45;100760.42;117616;1182;21848;-90
2021/08/15 09:03:14;;;;;;;7.40;4.50;;;;;;;39.01;23.42;100757.42;117683;1185;21891;-89
2021/08/15 09:05:52;;;;;;;7.10;4.10;;;;;;;39.29;23.04;100756.16;117482;1182;23537;-89
2021/08/15 09:08:34;;;;;;;7.90;3.90;;;;;;;39.57;22.74;100752.25;117683;1179;22139;-91
2021/08/15 09:11:29;;;;;;;5.70;3.70;;;;;;;39.72;21.91;100748.83;117490;1182;22911;-91
2021/08/15 09:14:00;;;;;;;6.70;3.60;;;;;;;39.60;21.99;100750.33;117674;1185;21863;-91
2021/08/15 09:16:57;;;;;;;6.90;3.90;;;;;;;39.72;21.93;100746.08;117679;1185;21856;-91
2021/08/15 09:19:33;;;;;;;9.30;4.40;;;;;;;39.77;21.37;100743.40;117636;1185;21861;-92
2021/08/15 09:22:11;;;;;;;8.60;4.00;;;;;;;39.84;21.86;100742.47;117663;1185;21855;-90
2021/08/15 09:24:55;;;;;;;6.50;3.60;;;;;;;40.14;22.22;100744.60;117598;1185;21881;-90
2021/08/15 09:27:30;;;;;;;11.80;4.80;;;;;;;40.40;22.21;100740.54;117369;1183;23554;-90
2021/08/15 09:30:19;;;;;;;4.70;3.70;;;;;;;40.67;21.46;100738.36;117647;1185;21863;-91
2021/08/15 09:32:58;;;;;;;5.80;3.60;;;;;;;41.02;21.19;100733.14;117687;1176;23574;-92
2021/08/15 09:35:29;;;;;;;5.20;3.80;;;;;;;41.29;21.12;100735.34;117466;1186;21899;-94
2021/08/15 09:38:09;;;;;;;9.10;4.10;;;;;;;41.51;20.90;100729.92;117379;1185;23999;-90
2021/08/15 09:40:49;;;;;;;6.00;4.20;;;;;;;41.54;20.30;100730.60;117728;1182;23654;-90
2021/08/15 09:43:27;;;;;;;6.40;4.40;;;;;;;41.42;20.12;100729.25;117873;1179;24151;-90
2021/08/15 09:45:59;;;;;;;6.40;4.50;;;;;;;41.29;19.82;100732.11;117618;1186;23633;-91
2021/08/15 09:48:36;;;;;;;7.50;4.20;;;;;;;41.11;19.72;100730.20;117590;1185;23040;-91
2021/08/15 09:51:15;;;;;;;5.60;3.70;;;;;;;40.72;19.07;100722.31;117697;1185;21844;-91
2021/08/15 09:53:50;;;;;;;6.20;4.40;;;;;;;40.13;19.41;100723.10;117584;1182;22340;-90
2021/08/15 09:56:39;;;;;;;6.40;4.00;;;;;;;39.76;20.70;100723.27;117421;1186;21879;-90
2021/08/15 09:59:15;;;;;;;6.30;4.10;;;;;;;40.00;21.24;100721.01;117562;1185;21909;-91
2021/08/15 10:01:45;;;;;;;7.00;3.90;;;;;;;40.44;21.28;100719.04;117491;1182;21916;-90
2021/08/15 10:04:13;;;;;;;;;;;;;;;40.94;20.84;100713.64;117612;1179;21850;-90
2021/08/15 10:06:43;;;;;;;6.60;4.30;;;;;;;41.10;19.43;100708.61;117563;1185;22154;-91
2021/08/15 10:09:11;;;;;;;28.50;5.70;;;;;;;40.65;19.20;100708.91;117536;1184;21911;-90
2021/08/15 10:11:41;;;;;;;9.20;5.00;;;;;;;40.36;20.16;100707.92;117621;1184;22645;-90
2021/08/15 10:14:10;;;;;;;6.10;3.70;;;;;;;40.19;20.41;100708.48;117335;1185;22641;-91
2021/08/15 10:16:44;;;;;;;6.70;3.80;;;;;;;40.17;21.28;100707.09;117535;1181;21860;-91
2021/08/15 10:19:17;;;;;;;5.50;4.20;;;;;;;40.32;20.50;100706.98;117541;1182;23563;-90
2021/08/15 10:21:47;;;;;;;7.30;4.10;;;;;;;40.32;20.01;100704.52;117344;1182;22661;-90
2021/08/15 10:24:15;;;;;;;7.50;4.20;;;;;;;40.24;20.59;100703.42;117525;1185;23540;-91
2021/08/15 10:26:45;;;;;;;5.40;3.80;;;;;;;40.34;20.38;100698.11;117513;1185;21884;-91
2021/08/15 10:29:35;;;;;;;6.10;4.10;;;;;;;40.35;19.73;100692.52;117560;1185;21869;-90
2021/08/15 10:32:04;;;;;;;;;;;;;;;40.30;20.38;100690.77;117609;1185;23519;-90
2021/08/15 10:34:51;;;;;;;6.90;4.00;;;;;;;40.67;20.45;100686.59;117638;1182;23541;-90
2021/08/15 10:37:22;;;;;;;4.90;3.70;;;;;;;41.15;20.64;100686.27;117668;1182;23541;-89
2021/08/15 10:39:55;;;;;;;6.60;4.20;;;;;;;41.53;20.27;100682.55;117664;1182;23563;-91
2021/08/15 10:42:39;;;;;;;6.10;3.90;;;;;;;41.82;20.01;100679.17;117426;1186;21904;-90
2021/08/15 10:45:20;;;;;;;5.70;3.90;;;;;;;42.09;19.45;100672.48;117621;1185;22599;-91
2021/08/15 10:48:21;;;;;;;10.90;4.40;;;;;;;41.96;18.44;100673.46;117671;1182;22357;-91
2021/08/15 10:50:54;;;;;;;9.40;4.40;;;;;;;41.90;18.89;100670.25;117589;1185;21864;-91
2021/08/15 10:53:30;;;;;;;6.10;4.30;;;;;;;42.01;19.00;100666.17;117463;1182;23544;-89
2021/08/15 10:56:08;;;;;;;6.90;4.00;;;;;;;42.11;19.20;100664.81;117648;1185;22229;-91
2021/08/15 10:58:39;;;;;;;4.70;3.90;;;;;;;42.28;19.01;100669.30;117413;1182;23605;-91
2021/08/15 11:01:12;;;;;;;8.40;4.10;;;;;;;42.00;17.90;100665.54;117516;1180;21855;-91
2021/08/15 11:03:47;;;;;;;6.40;4.00;;;;;;;41.61;18.81;100668.45;117676;1176;21855;-89
2021/08/15 11:06:30;;;;;;;5.60;3.70;;;;;;;41.71;19.19;100666.65;117642;1185;22635;-91
2021/08/15 11:09:00;;;;;;;5.00;3.60;;;;;;;41.96;19.05;100669.89;117747;1182;23578;-90
2021/08/15 11:11:37;;;;;;;5.10;3.80;;;;;;;42.05;18.63;100664.11;117678;1182;22622;-92
2021/08/15 11:14:17;;;;;;;7.70;4.10;;;;;;;42.22;18.80;100661.39;117544;1185;22905;-92
2021/08/15 11:16:55;;;;;;;4.80;4.00;;;;;;;42.35;18.54;100662.36;117627;1185;22952;-92
2021/08/15 11:19:23;;;;;;;5.70;3.80;;;;;;;42.40;19.08;100665.23;117600;1185;21858;-91
2021/08/15 11:22:04;;;;;;;4.70;3.70;;;;;;;42.43;18.60;100662.02;117380;1188;21910;-91
2021/08/15 11:24:36;;;;;;;5.80;3.90;;;;;;;42.26;17.95;100660.55;117623;1185;22337;-92
2021/08/15 11:27:05;;;;;;;8.80;4.70;;;;;;;42.08;18.42;100660.20;117522;1182;22890;-91
2021/08/15 11:29:33;;;;;;;5.70;3.80;;;;;;;42.15;18.82;100657.85;117640;1183;21869;-90